Aviation Digital Data Service (ADDS)

Output produced by TAFs form (0840 UTC 24 September 2017)
found at http://aviationweather.gov/adds/tafs/
 
KFMN 240537Z 2406/2506 08008KT P6SM SKC 
     FM241900 28010KT P6SM SKC 
     FM250400 VRB04KT P6SM SKC